首页
METAR-TAF:

METAR-TAF

机场 :

Gallup, 新墨西哥州, 美国

纬度: 35-30-40N, 经度: 108-47-22W, 海拔: 1973米

当前天气观测

该预报发布于18分钟前的13:53 UTC
风速4节,风向东北
温度 1°C
湿度 86%
气压 1011 hPa
能見度: 16.1公里
多云层高于1100英尺
多云层高于2100英尺
阴天层高于4500英尺

METAR: KGUP 261353Z AUTO 05004KT 10SM BKN011 BKN021 OVC045 01/M01 A2985 RMK AO2 SNE46 SLP051 P0000 T00111006

时间: 08:11 (14:11 UTC)

预报

该预报发布于2小时和31分钟前的11:40 UTC
预报有效从26日的 12点(UTC)到 27日的 12点(UTC)
风速11节,风向
能見度: 9.7公里
阴天层高于1900英尺
小雪
从 27日的 0000点(UTC)
风速7节,风向东北
能見度: 10公里
阴天层高于2100英尺
附近有阵雨
从 27日的 0600点(UTC)
风速6节,风向东北
能見度: 10公里
阴天层高于3500英尺

TAF: KGUP 261140Z 2612/2712 01011KT 6SM -SN OVC019 FM270000 04007KT P6SM VCSH OVC021 FM270600 05006KT P6SM OVC035

超过4000个机场的气象观测和天气预报(METAR&TAF报告)。

可查询的气象台以黄色和红色小点在地图上表示。

将鼠标移到小点上方,可查看气象台名称。

然后点击查看天气观测和预报。

如需切换地图:点击带黑十字的绿色按钮放大地图;点击带横线的绿色按钮缩小地图;或者点击绿色箭头查看邻近地区的地图。


METAR-TAF: